Menu       Home   X °C

Select another period ( hide this area )

Units Period Custom range Directly to
Metric English Both
Daily Weekly Monthly Yearly
use both date-selectors for a custom range
previous Day
With this date
Daily Summary for Thursday 13 June 2024
Time Temp. ( °F ) Dew pt. ( °F ) Wind ( mph ) From Gust ( mph ) Pressure ( in ) Humid.( % ) Rainrate ( in )
High85.5 70.7 3.0 South ( 155/155 ) 3.0 30.01 99 -
Average71.7 65.5 0.6 Calm #181/279 0.7 30.00 83 -
Low60.8 60.4 -   0.0 29.92 56 -
Daily Tabular details for Thursday 13 June 2024
Time Temp. ( °F ) Dew pt. ( °F ) Wind ( mph ) From Gust ( mph ) Pressure ( in ) Humid.( % ) Rainrate ( in )
00:04 65.5 64.8   Calm   29.95 97 -
00:09 65.5 64.8   Calm   29.95 97 -
00:14 65.5 64.8   Calm   29.95 97 -
00:19 65.3 64.6   Calm   29.95 97 -
00:24 65.1 64.4   Calm   29.95 97 -
00:29 64.9 64.2   Calm   29.95 97 -
00:34 65.1 64.4   Calm   29.95 97 -
00:39 65.1 64.4   Calm   29.95 97 -
00:44 64.9 64.2   Calm   29.95 97 -
00:49 64.9 64.2   Calm   29.95 97 -
00:54 64.8 64.0   Calm   29.95 97 -
00:59 64.8 64.0   Calm   29.95 97 -
01:04 64.6 63.9   Calm   29.95 97 -
01:09 64.4 63.7   Calm   29.95 97 -
01:14 64.4 63.7   Calm   29.95 97 -
01:19 64.0 63.3   Calm   29.94 97 -
01:24 63.9 63.3   Calm   29.94 98 -
01:29 63.9 63.3   Calm   29.94 98 -
01:34 63.9 63.3   Calm   29.95 98 -
01:39 63.7 63.1   Calm   29.94 98 -
01:44 63.7 63.1   Calm   29.94 98 -
01:49 63.5 63.0   Calm   29.94 98 -
01:54 63.3 62.8   Calm   29.94 98 -
01:59 63.5 63.0   Calm   29.94 98 -
02:04 63.3 62.8   Calm   29.94 98 -
02:09 63.1 62.6   Calm   29.94 98 -
02:14 63.0 62.4   Calm   29.94 98 -
02:19 63.0 62.4   Calm   29.93 98 -
02:24 62.8 62.4   Calm   29.93 99 -
02:29 62.8 62.4   Calm   29.93 99 -
02:34 62.6 62.2   Calm   29.93 99 -
02:39 62.6 62.2 1.0 South 1.0 29.93 99 -
02:44 63.0 62.6 1.0 South 1.0 29.93 99 -
02:49 63.0 62.6 1.0 South 1.0 29.93 99 -
02:54 63.0 62.6   Calm   29.92 99 -
02:59 63.1 62.8   Calm   29.93 99 -
03:04 63.1 62.8   Calm   29.92 99 -
03:09 63.1 62.8   Calm   29.93 99 -
03:14 63.0 62.6   Calm   29.93 99 -
03:19 62.8 62.4   Calm   29.92 99 -
03:24 62.8 62.2   Calm   29.92 98 -
03:29 62.6 62.2   Calm   29.92 99 -
03:34 62.6 62.2   Calm   29.93 99 -
03:39 62.6 62.2   Calm   29.92 99 -
03:44 62.6 62.2   Calm   29.92 99 -
03:49 62.6 62.2   Calm   29.93 99 -
03:54 62.6 62.2   Calm   29.92 99 -
03:59 62.4 62.1   Calm   29.93 99 -
04:04 62.2 61.9   Calm   29.93 99 -
04:09 62.1 61.7   Calm   29.93 99 -
04:14 62.1 61.7   Calm   29.93 99 -
04:19 62.1 61.7   Calm   29.93 99 -
04:24 62.1 61.7   Calm   29.94 99 -
04:29 62.1 61.7   Calm   29.94 99 -
04:34 62.1 61.7   Calm   29.94 99 -
04:39 62.1 61.7   Calm   29.95 99 -
04:44 62.1 61.7   Calm   29.94 99 -
04:49 62.1 61.7   Calm   29.94 99 -
04:54 61.9 61.5   Calm   29.95 99 -
04:59 61.9 61.5   Calm   29.94 99 -
05:04 61.9 61.5   Calm   29.95 99 -
05:09 61.9 61.5   Calm   29.95 99 -
05:14 61.9 61.5   Calm   29.95 99 -
05:19 61.7 61.3   Calm   29.95 99 -
05:24 61.7 61.3   Calm   29.95 99 -
05:29 61.5 61.2   Calm   29.95 99 -
05:34 61.5 61.2   Calm   29.96 99 -
05:39 61.3 61.0   Calm   29.96 99 -
05:44 61.3 61.0   Calm   29.96 99 -
05:49 61.3 61.0   Calm   29.96 99 -
05:54 61.5 61.2   Calm   29.96 99 -
05:59 61.5 61.2   Calm   29.96 99 -
06:04 61.5 61.2   Calm   29.96 99 -
06:09 61.3 61.0   Calm   29.96 99 -
06:14 61.3 61.0   Calm   29.96 99 -
06:19 61.3 61.0   Calm   29.96 99 -
06:24 61.2 60.8   Calm   29.96 99 -
06:29 61.2 60.8   Calm   29.97 99 -
06:34 61.0 60.6   Calm   29.97 99 -
06:39 61.0 60.6   Calm   29.97 99 -
06:44 61.0 60.6   Calm   29.97 99 -
06:49 60.8 60.4   Calm   29.97 99 -
06:54 60.8 60.4   Calm   29.97 99 -
06:59 61.0 60.6   Calm   29.97 99 -
07:04 61.0 60.6   Calm   29.97 99 -
07:09 61.0 60.6   Calm   29.98 99 -
07:14 61.0 60.6   Calm   29.98 99 -
07:19 60.8 60.4   Calm   29.98 99 -
07:24 61.2 60.8   Calm   29.98 99 -
07:29 61.5 61.2   Calm   29.98 99 -
07:34 61.7 61.3   Calm   29.99 99 -
07:39 62.1 61.7   Calm   29.98 99 -
07:44 62.1 61.7   Calm   29.98 99 -
07:49 62.2 61.9   Calm   29.99 99 -
07:54 62.6 62.2 1.0 South 3.0 29.99 99 -
07:59 62.8 62.4   Calm   29.99 99 -
08:04 63.0 62.6   Calm   29.99 99 -
08:09 63.3 63.0   Calm   29.99 99 -
08:14 63.5 63.1   Calm   30.00 99 -
08:19 63.9 63.3   Calm   30.00 98 -
08:24 64.0 63.5   Calm   29.99 98 -
08:29 64.8 63.7   Calm   29.99 97 -
08:34 65.3 64.2   Calm   30.00 96 -
08:39 65.5 64.4   Calm   30.00 96 -
08:44 65.8 64.4   Calm   30.00 95 -
08:49 66.4 64.4   Calm   30.00 95 -
08:54 67.3 64.9   Calm   30.00 92 -
08:59 67.6 65.1   Calm   30.00 92 -
09:04 68.2 65.3 1.0 South 1.0 30.00 91 -
09:09 68.9 64.6 1.0 South 1.0 30.00 87 -
09:14 69.3 64.9 1.0 South 1.0 30.00 86 -
09:19 69.6 65.3   Calm   30.01 86 -
09:24 70.0 65.3   Calm   30.01 85 -
09:29 70.0 65.3   Calm   30.01 85 -
09:34 70.0 65.3   Calm   30.00 85 -
09:39 70.3 65.8   Calm   30.01 86 -
09:44 70.2 66.2   Calm   30.01 87 -
09:49 70.5 66.4   Calm   30.01 87 -
09:54 71.6 67.1   Calm   30.01 86 -
09:59 72.1 66.4   Calm   30.00 83 -
10:04 72.7 66.9 1.0 South 1.0 30.00 82 -
10:09 73.2 67.3   Calm   30.00 82 -
10:14 73.8 67.1 1.0 South 1.0 30.00 80 -
10:19 74.3 66.7 1.0 South 1.0 30.01 78 -
10:24 74.8 66.6 1.0 South 1.0 30.00 77 -
10:29 75.4 65.7 1.0 South 1.0 30.01 73 -
10:34 75.6 65.5 1.0 South 1.0 30.00 71 -
10:39 75.9 66.2 1.0 South 1.0 30.00 72 -
10:44 75.9 65.1 2.0 South 2.0 30.00 69 -
10:49 75.6 65.1 2.0 South 2.0 30.00 70 -
10:54 75.9 65.5 1.0 South 2.0 30.00 70 -
10:59 76.1 65.8 1.0 South 2.0 30.00 71 -
11:04 76.5 65.5 1.0 South 1.0 30.00 69 -
11:09 76.6 66.2 1.0 South 1.0 30.00 70 -
11:14 77.2 66.9 1.0 South 1.0 30.00 71 -
11:19 77.4 67.1 1.0 South 2.0 30.00 71 -
11:24 77.0 66.4 1.0 South 2.0 30.00 70 -
11:29 77.0 66.0 1.0 South 2.0 30.00 69 -
11:34 77.2 65.8 1.0 South 2.0 29.99 68 -
11:39 77.5 66.4 1.0 South 2.0 30.00 69 -
11:44 77.9 66.7 2.0 South 2.0 30.00 69 -
11:49 78.6 66.9 2.0 South 2.0 29.99 68 -
11:54 79.0 66.7 2.0 South 3.0 29.99 67 -
11:59 79.7 67.8 1.0 South 1.0 29.99 68 -
12:04 80.1 66.9 1.0 South 1.0 29.99 65 -
12:09 80.1 65.5 2.0 South 3.0 29.99 62 -
12:14 79.2 65.3 3.0 South 3.0 29.99 63 -
12:19 79.2 65.1 2.0 South 3.0 29.99 62 -
12:24 79.2 65.1 2.0 South 2.0 29.99 63 -
12:29 80.4 66.6 2.0 South 2.0 29.99 64 -
12:34 80.8 66.2 2.0 South 3.0 29.98 62 -
12:39 81.3 66.2 3.0 South 3.0 29.99 60 -
12:44 81.7 67.1 2.0 South 3.0 29.99 62 -
12:49 81.7 67.5 2.0 South 2.0 29.99 62 -
12:54 81.0 66.2 2.0 South 2.0 29.98 61 -
12:59 81.7 66.6 3.0 South 3.0 29.98 61 -
13:04 81.7 66.4 2.0 South 3.0 29.98 60 -
13:09 81.9 67.1 2.0 South 2.0 29.98 61 -
13:14 81.7 67.5 3.0 South 3.0 29.98 62 -
13:19 81.9 67.1 1.0 South 2.0 29.97 61 -
13:24 82.2 67.5 1.0 South 2.0 29.97 62 -
13:29 82.8 67.6 2.0 South 2.0 29.98 61 -
13:34 83.1 68.0 2.0 South 2.0 29.97 61 -
13:39 83.7 68.7 1.0 South 2.0 29.98 61 -
13:44 83.7 67.6 2.0 South 2.0 29.97 59 -
13:49 82.9 66.7 3.0 South 3.0 29.98 59 -
13:54 82.2 66.6 3.0 South 3.0 29.98 59 -
13:59 83.1 66.9 2.0 South 3.0 29.97 59 -
14:04 83.7 66.7 2.0 South 3.0 29.97 57 -
14:09 83.5 67.1 2.0 South 2.0 29.98 59 -
14:14 82.8 66.6 2.0 South 2.0 29.97 58 -
14:19 82.9 67.6 2.0 South 2.0 29.97 60 -
14:24 82.8 66.6 2.0 South 2.0 29.97 59 -
14:29 82.4 66.4 2.0 South 2.0 29.97 59 -
14:34 82.6 66.4 2.0 South 2.0 29.97 58 -
14:39 82.6 65.8 1.0 South 2.0 29.97 57 -
14:44 82.2 66.9 2.0 South 2.0 29.97 60 -
14:49 82.8 66.9 2.0 South 3.0 29.97 60 -
14:54 83.3 66.6 2.0 South 2.0 29.96 57 -
14:59 83.1 66.4 2.0 South 2.0 29.97 57 -
15:04 83.1 66.6 3.0 South 3.0 29.96 58 -
15:09 83.7 66.4 3.0 South 3.0 29.96 56 -
15:14 84.6 67.1 1.0 South 2.0 29.96 57 -
15:19 84.6 67.6 3.0 South 3.0 29.96 57 -
15:24 84.0 66.7 1.0 South 2.0 29.96 56 -
15:29 83.5 67.3 2.0 South 2.0 29.96 58 -
15:34 82.2 66.2 1.0 South 2.0 29.96 59 -
15:39 81.7 67.3   Calm 1.0 29.96 63 -
15:44 81.0 68.0 1.0 South 1.0 29.95 65 -
15:49 80.2 67.6 1.0 South 1.0 29.95 66 -
15:54 81.1 69.1 1.0 South 1.0 29.95 68 -
15:59 82.9 69.1 1.0 South 2.0 29.95 64 -
16:04 83.1 69.6 1.0 South 1.0 29.95 64 -
16:09 82.9 69.1 1.0 South 2.0 29.95 63 -
16:14 81.7 66.4 2.0 South 2.0 29.95 60 -
16:19 80.8 66.7 1.0 South 1.0 29.95 63 -
16:24 81.1 67.5   Calm 1.0 29.95 64 -
16:29 81.1 68.4 1.0 South 1.0 29.94 65 -
16:34 81.9 69.1 1.0 South 1.0 29.94 65 -
16:39 81.9 68.0 2.0 South 2.0 29.94 64 -
16:44 81.7 67.8 1.0 South 2.0 29.94 63 -
16:49 82.6 68.0 3.0 South 3.0 29.94 63 -
16:54 83.3 68.4 1.0 South 3.0 29.94 61 -
16:59 83.8 68.7 2.0 South 2.0 29.94 61 -
17:04 84.9 67.8 1.0 South 2.0 29.94 58 -
17:09 84.9 68.5 1.0 South 1.0 29.94 58 -
17:14 84.4 67.5 2.0 South 2.0 29.94 57 -
17:19 84.0 67.3 2.0 South 2.0 29.94 57 -
17:24 84.7 68.4 1.0 South 2.0 29.94 58 -
17:29 84.7 68.4 2.0 South 2.0 29.94 58 -
17:34 84.7 67.1 1.0 South 2.0 29.94 56 -
17:39 85.5 68.5 1.0 South 1.0 29.94 57 -
17:44 85.5 69.3 1.0 South 2.0 29.94 62 -
17:49 83.1 68.2   Calm 1.0 29.94 63 -
17:54 81.3 67.3   Calm   29.94 63 -
17:59 80.4 67.6 1.0 South 1.0 29.94 67 -
18:04 79.5 67.8   Calm 1.0 29.94 68 -
18:09 78.8 68.4   Calm   29.94 71 -
18:14 78.4 69.8   Calm   29.94 76 -
18:19 77.9 70.0   Calm   29.94 77 -
18:24 77.2 70.2   Calm   29.94 79 -
18:29 76.6 69.8   Calm   29.94 80 -
18:34 76.1 69.4   Calm   29.94 80 -
18:39 76.1 69.4   Calm   29.94 80 -
18:44 75.9 69.6   Calm   29.94 81 -
18:49 76.1 69.8   Calm   29.94 81 -
18:54 76.3 69.6   Calm   29.94 80 -
18:59 76.5 69.6   Calm   29.94 80 -
19:04 76.6 69.3   Calm   29.94 78 -
19:09 77.0 70.7   Calm   29.94 81 -
19:14 77.0 70.7   Calm   29.94 81 -
19:19 76.6 70.0   Calm   29.94 80 -
19:24 76.3 69.6   Calm   29.94 80 -
19:29 75.9 69.3   Calm   29.94 81 -
19:34 75.6 69.6   Calm   29.95 82 -
19:39 75.4 69.4   Calm   29.95 82 -
19:44 75.0 69.8   Calm   29.94 84 -
19:49 74.8 69.6   Calm   29.94 84 -
19:54 74.5 69.6   Calm   29.94 85 -
19:59 74.5 70.0   Calm   29.94 86 -
20:04 74.1 69.8   Calm   29.95 87 -
20:09 73.9 69.8   Calm   29.94 87 -
20:14 73.8 69.3   Calm   29.94 86 -
20:19 73.8 69.3   Calm   29.94 86 -
20:24 73.6 69.1   Calm   29.94 86 -
20:29 73.6 69.1   Calm   29.94 86 -
20:34 73.6 69.4   Calm   29.94 87 -
20:39 73.6 69.4   Calm   29.94 87 -
20:44 73.4 69.3   Calm   29.94 87 -
20:49 73.4 69.6   Calm   29.95 88 -
20:54 73.2 69.4   Calm   29.94 88 -
20:59 73.0 69.1   Calm   29.94 88 -
21:04 72.9 69.1   Calm   29.94 88 -
21:09 72.7 68.9   Calm   29.94 88 -
21:14 72.7 68.9   Calm   29.94 88 -
21:19 72.7 68.9   Calm   29.94 88 -
21:24 72.3 68.5   Calm   29.94 88 -
21:29 72.1 68.4   Calm   29.94 89 -
21:34 71.8 68.4   Calm   29.94 89 -
21:39 71.6 68.2   Calm   29.94 89 -
21:44 71.4 68.0   Calm   29.94 89 -
21:49 71.1 68.0   Calm   29.94 90 -
21:54 70.7 67.6   Calm   29.94 90 -
21:59 70.5 67.5   Calm   29.94 90 -
22:04 70.5 67.6   Calm   29.94 91 -
22:09 70.2 67.5   Calm   29.94 91 -
22:14 69.8 67.1   Calm   29.94 91 -
22:19 69.6 67.3   Calm   29.95 92 -
22:24 69.3 67.1   Calm   29.95 93 -
22:29 69.1 66.9   Calm   29.95 93 -
22:34 68.9 66.7   Calm   29.95 93 -
22:39 68.7 66.6   Calm   29.96 93 -
22:44 68.5 66.6   Calm   29.96 94 -
22:49 68.5 66.6   Calm   29.96 94 -
22:54 68.4 66.4   Calm   29.95 94 -
22:59 68.2 66.2   Calm   29.95 94 -
23:04 68.0 66.0   Calm   29.95 94 -
23:09 67.8 65.8   Calm   29.96 94 -
23:14 67.6 65.7   Calm   29.95 94 -

Download your copy of this data-set  from WeatherUnderground

Our weather-data as stored at Weather Underground

Original Weather Page

My Ham Radio Page